createdAt,value
2018-11-11T00:00:14.647Z,13.41
2018-11-11T00:02:42.738Z,13.37
2018-11-11T00:05:11.724Z,13.38
2018-11-11T00:07:40.193Z,13.36
2018-11-11T00:10:08.295Z,13.38
2018-11-11T00:12:36.655Z,13.39
2018-11-11T00:15:05.566Z,13.49
2018-11-11T00:17:33.661Z,13.40
2018-11-11T00:20:01.750Z,13.31
2018-11-11T00:22:29.846Z,13.24
2018-11-11T00:24:57.937Z,13.30
2018-11-11T00:27:26.030Z,13.21
2018-11-11T00:29:54.110Z,13.16
2018-11-11T00:32:22.203Z,13.09
2018-11-11T00:34:50.277Z,13.07
2018-11-11T00:37:18.365Z,12.91
2018-11-11T00:39:46.501Z,12.97
2018-11-11T00:42:14.524Z,12.81
2018-11-11T00:44:42.711Z,12.72
2018-11-11T00:47:10.794Z,12.73
2018-11-11T00:49:38.864Z,12.59
2018-11-11T00:52:07.345Z,12.64
2018-11-11T00:54:35.414Z,12.59
2018-11-11T00:57:03.518Z,12.55
2018-11-11T00:59:31.603Z,12.56
2018-11-11T01:01:59.681Z,12.57
2018-11-11T01:04:27.778Z,12.66
2018-11-11T01:06:55.860Z,12.68
2018-11-11T01:09:23.930Z,12.66
2018-11-11T01:11:52.136Z,12.56
2018-11-11T01:14:20.243Z,12.51
2018-11-11T01:16:48.318Z,12.49
2018-11-11T01:19:16.398Z,12.50
2018-11-11T01:21:44.613Z,12.58
2018-11-11T01:24:12.693Z,12.53
2018-11-11T01:26:40.769Z,12.49
2018-11-11T01:29:08.862Z,12.49
2018-11-11T01:31:36.919Z,12.51
2018-11-11T01:34:04.998Z,12.61
2018-11-11T01:36:33.066Z,12.51
2018-11-11T01:39:01.145Z,12.48
2018-11-11T01:41:29.238Z,12.52
2018-11-11T01:43:57.327Z,12.48
2018-11-11T01:46:25.393Z,12.56
2018-11-11T01:48:53.478Z,12.53
2018-11-11T01:51:21.552Z,12.54
2018-11-11T01:53:49.633Z,12.50
2018-11-11T01:56:17.700Z,12.61
2018-11-11T01:58:45.780Z,12.52
2018-11-11T02:01:13.852Z,12.52
2018-11-11T02:03:41.925Z,12.61
2018-11-11T02:06:09.998Z,12.52
2018-11-11T02:08:38.076Z,12.44
2018-11-11T02:11:06.147Z,12.43
2018-11-11T02:13:34.226Z,12.45
2018-11-11T02:16:02.298Z,12.48
2018-11-11T02:18:30.380Z,12.50
2018-11-11T02:20:58.493Z,12.48
2018-11-11T02:23:26.535Z,12.54
2018-11-11T02:25:54.602Z,12.64
2018-11-11T02:28:22.688Z,12.56
2018-11-11T02:30:50.769Z,12.51
2018-11-11T02:33:18.839Z,12.54
2018-11-11T02:35:46.915Z,12.54
2018-11-11T02:38:14.991Z,12.44
2018-11-11T02:40:43.071Z,12.33
2018-11-11T02:43:11.141Z,12.25
2018-11-11T02:45:39.225Z,12.19
2018-11-11T02:48:07.293Z,12.16
2018-11-11T02:50:35.373Z,12.15
2018-11-11T02:53:03.445Z,12.11
2018-11-11T02:55:31.518Z,12.06
2018-11-11T02:57:59.586Z,12.01
2018-11-11T03:00:27.675Z,11.99
2018-11-11T03:02:55.738Z,11.98
2018-11-11T03:05:23.827Z,11.95
2018-11-11T03:07:51.890Z,11.90
2018-11-11T03:10:19.985Z,11.88
2018-11-11T03:12:48.998Z,11.87
2018-11-11T03:15:17.598Z,11.84
2018-11-11T03:17:45.768Z,11.76
2018-11-11T03:20:14.561Z,11.71
2018-11-11T03:22:42.649Z,11.72
2018-11-11T03:25:11.941Z,11.80
2018-11-11T03:27:40.511Z,11.74
2018-11-11T03:30:10.218Z,11.72
2018-11-11T03:32:38.612Z,11.65
2018-11-11T03:35:08.210Z,11.62
2018-11-11T03:37:36.306Z,11.54
2018-11-11T03:40:06.714Z,11.57
2018-11-11T03:42:34.808Z,11.51
2018-11-11T03:45:02.895Z,11.46
2018-11-11T03:47:30.988Z,11.41
2018-11-11T03:49:59.069Z,11.38
2018-11-11T03:52:27.168Z,11.34
2018-11-11T03:54:55.261Z,11.32
2018-11-11T03:57:23.350Z,11.34
2018-11-11T03:59:51.448Z,11.31
2018-11-11T04:02:19.639Z,11.25
2018-11-11T04:04:47.721Z,11.21
2018-11-11T04:07:15.820Z,11.18
2018-11-11T04:09:43.917Z,11.13
2018-11-11T04:12:12.023Z,11.13
2018-11-11T04:14:40.106Z,11.10
2018-11-11T04:17:08.212Z,11.05
2018-11-11T04:19:36.299Z,11.06
2018-11-11T04:22:10.515Z,11.06
2018-11-11T04:24:38.603Z,10.97
2018-11-11T04:27:06.711Z,10.95
2018-11-11T04:29:34.814Z,10.93
2018-11-11T04:32:02.907Z,10.92
2018-11-11T04:34:30.983Z,10.93
2018-11-11T04:36:59.071Z,10.89
2018-11-11T04:39:27.150Z,10.89
2018-11-11T04:41:55.259Z,10.89
2018-11-11T04:44:23.339Z,10.90
2018-11-11T04:46:51.426Z,10.97
2018-11-11T04:49:19.512Z,10.90
2018-11-11T04:51:47.589Z,10.87
2018-11-11T04:54:15.682Z,10.89
2018-11-11T04:56:43.762Z,10.93
2018-11-11T04:59:11.859Z,10.88
2018-11-11T05:01:40.023Z,10.88
2018-11-11T05:04:08.256Z,10.92
2018-11-11T05:06:36.337Z,10.92
2018-11-11T05:09:07.165Z,10.88
2018-11-11T05:11:35.247Z,10.87
2018-11-11T05:14:03.378Z,10.89
2018-11-11T05:16:31.455Z,10.92
2018-11-11T05:18:59.581Z,11.00
2018-11-11T05:21:27.658Z,10.98
2018-11-11T05:23:55.745Z,10.98
2018-11-11T05:26:23.869Z,11.02
2018-11-11T05:28:51.962Z,11.03
2018-11-11T05:31:20.049Z,11.05
2018-11-11T05:33:48.154Z,11.12
2018-11-11T05:36:16.239Z,11.13
2018-11-11T05:38:44.343Z,11.15
2018-11-11T05:41:12.469Z,11.16
2018-11-11T05:43:40.574Z,11.20
2018-11-11T05:46:08.663Z,11.25
2018-11-11T05:48:36.786Z,11.29
2018-11-11T05:51:05.002Z,11.35
2018-11-11T05:53:33.097Z,11.39
2018-11-11T05:56:01.194Z,11.38
2018-11-11T05:58:29.294Z,11.37
2018-11-11T06:00:57.410Z,11.39
2018-11-11T06:03:25.537Z,11.41
2018-11-11T06:05:53.625Z,11.39
2018-11-11T06:08:21.722Z,11.34
2018-11-11T06:10:49.817Z,11.35
2018-11-11T06:13:17.920Z,11.41
2018-11-11T06:15:46.005Z,11.41
2018-11-11T06:18:14.116Z,11.37
2018-11-11T06:20:42.199Z,11.35
2018-11-11T06:23:10.287Z,11.29
2018-11-11T06:25:38.399Z,11.28
2018-11-11T06:28:06.490Z,11.30
2018-11-11T06:30:34.582Z,11.35
2018-11-11T06:33:02.664Z,11.36
2018-11-11T06:35:30.755Z,11.33
2018-11-11T06:37:58.832Z,11.35
2018-11-11T06:40:26.921Z,11.40
2018-11-11T06:42:54.998Z,11.42
2018-11-11T06:45:23.081Z,11.47
2018-11-11T06:47:51.200Z,11.51
2018-11-11T06:50:19.236Z,11.53
2018-11-11T06:52:47.317Z,11.54
2018-11-11T06:55:15.402Z,11.55
2018-11-11T06:57:43.485Z,11.54
2018-11-11T07:00:14.325Z,11.55
2018-11-11T07:02:53.834Z,11.55
2018-11-11T07:05:21.928Z,11.56
2018-11-11T07:07:50.197Z,11.56
2018-11-11T07:10:18.294Z,11.61
2018-11-11T07:12:46.372Z,11.68
2018-11-11T07:15:14.469Z,11.63
2018-11-11T07:17:42.546Z,11.57
2018-11-11T07:20:10.621Z,11.58
2018-11-11T07:22:38.706Z,11.59
2018-11-11T07:25:07.008Z,11.62
2018-11-11T07:27:35.105Z,11.65
2018-11-11T07:30:03.193Z,11.68
2018-11-11T07:32:31.281Z,11.68
2018-11-11T07:34:59.354Z,11.67
2018-11-11T07:37:27.537Z,11.65
2018-11-11T07:39:55.625Z,11.62
2018-11-11T07:42:23.764Z,11.66
2018-11-11T07:44:51.899Z,11.71
2018-11-11T07:47:19.986Z,11.70
2018-11-11T07:49:48.058Z,11.67
2018-11-11T07:52:16.147Z,11.71
2018-11-11T07:54:44.282Z,11.74
2018-11-11T07:57:12.310Z,11.75
2018-11-11T07:59:40.488Z,11.72
2018-11-11T08:02:09.085Z,11.62
2018-11-11T08:04:37.294Z,11.62
2018-11-11T08:07:05.895Z,11.53
2018-11-11T08:09:33.976Z,11.43
2018-11-11T08:12:03.476Z,11.43
2018-11-11T08:14:31.552Z,11.41
2018-11-11T08:16:59.678Z,11.34
2018-11-11T08:19:27.875Z,11.33
2018-11-11T08:21:55.972Z,11.36
2018-11-11T08:24:24.071Z,11.39
2018-11-11T08:26:52.610Z,11.42
2018-11-11T08:29:20.766Z,11.44
2018-11-11T08:31:48.916Z,11.44
2018-11-11T08:34:17.251Z,11.55
2018-11-11T08:36:45.720Z,11.51
2018-11-11T08:39:14.829Z,11.54
2018-11-11T08:41:44.020Z,11.57
2018-11-11T08:44:12.506Z,11.59
2018-11-11T08:46:41.898Z,11.70
2018-11-11T08:49:11.114Z,11.70
2018-11-11T08:51:39.212Z,11.76
2018-11-11T08:54:07.459Z,11.87
2018-11-11T08:56:35.577Z,11.84
2018-11-11T08:59:03.668Z,11.84
2018-11-11T09:01:31.824Z,11.93
2018-11-11T09:04:00.056Z,12.01
2018-11-11T09:06:28.136Z,12.04
2018-11-11T09:08:56.226Z,12.00
2018-11-11T09:11:24.332Z,12.06
2018-11-11T09:13:52.389Z,12.10
2018-11-11T09:16:20.569Z,12.13
2018-11-11T09:18:49.102Z,12.24
2018-11-11T09:21:17.212Z,12.30
2018-11-11T09:23:45.284Z,12.30
2018-11-11T09:26:13.347Z,12.28
2018-11-11T09:28:41.453Z,12.32
2018-11-11T09:31:09.676Z,12.41
2018-11-11T09:33:37.860Z,12.39
2018-11-11T09:36:06.408Z,12.43
2018-11-11T09:38:34.504Z,12.50
2018-11-11T09:41:02.639Z,12.56
2018-11-11T09:43:30.735Z,12.65
2018-11-11T09:45:58.822Z,12.70
2018-11-11T09:48:26.913Z,12.70
2018-11-11T09:50:55.014Z,12.82
2018-11-11T09:53:23.103Z,12.91
2018-11-11T09:55:51.193Z,12.91
2018-11-11T09:58:19.277Z,12.97
2018-11-11T10:00:47.370Z,13.02
2018-11-11T10:03:19.827Z,13.19
2018-11-11T10:05:53.384Z,13.14
2018-11-11T10:08:26.215Z,13.22
2018-11-11T10:11:01.056Z,13.23
2018-11-11T10:13:33.111Z,13.28
2018-11-11T10:16:25.482Z,13.35
2018-11-11T10:18:59.770Z,13.41
2018-11-11T10:21:32.556Z,13.47
2018-11-11T10:24:04.612Z,13.51
2018-11-11T10:26:43.347Z,13.56
2018-11-11T10:29:16.775Z,13.61
2018-11-11T10:31:48.914Z,13.68
2018-11-11T10:34:20.568Z,13.71
2018-11-11T10:37:02.772Z,13.78
2018-11-11T10:39:37.493Z,13.84
2018-11-11T10:42:09.669Z,13.93
2018-11-11T10:44:42.136Z,14.02
2018-11-11T10:47:19.824Z,14.10
2018-11-11T10:49:53.125Z,14.20
2018-11-11T10:52:21.524Z,14.31
2018-11-11T10:54:49.596Z,14.38
2018-11-11T10:57:17.868Z,14.46
2018-11-11T10:59:45.942Z,14.55
2018-11-11T11:02:20.169Z,14.61
2018-11-11T11:04:53.705Z,14.67
2018-11-11T11:07:21.813Z,14.73
2018-11-11T11:09:50.201Z,14.80
2018-11-11T11:12:18.291Z,14.86
2018-11-11T11:14:46.352Z,14.92
2018-11-11T11:17:14.437Z,14.97
2018-11-11T11:19:42.501Z,15.05
2018-11-11T11:22:10.578Z,15.11
2018-11-11T11:24:38.635Z,15.16
2018-11-11T11:27:06.785Z,15.19
2018-11-11T11:29:34.777Z,15.25
2018-11-11T11:32:02.944Z,15.31
2018-11-11T11:34:30.926Z,15.37
2018-11-11T11:36:59.012Z,15.43
2018-11-11T11:39:27.073Z,15.49
2018-11-11T11:41:55.141Z,15.52
2018-11-11T11:44:23.221Z,15.56
2018-11-11T11:46:51.294Z,15.62
2018-11-11T11:49:19.424Z,15.68
2018-11-11T11:51:47.522Z,15.72
2018-11-11T11:54:15.580Z,15.76
2018-11-11T11:56:43.645Z,15.80
2018-11-11T11:59:11.722Z,15.85
2018-11-11T12:01:39.788Z,15.93
2018-11-11T12:04:07.867Z,15.98
2018-11-11T12:06:35.931Z,16.03
2018-11-11T12:09:06.333Z,16.07
2018-11-11T12:11:34.373Z,16.10
2018-11-11T12:14:02.451Z,16.14
2018-11-11T12:16:30.600Z,16.15
2018-11-11T12:18:58.608Z,16.17
2018-11-11T12:21:26.676Z,16.20
2018-11-11T12:23:54.787Z,16.21
2018-11-11T12:26:23.117Z,16.23
2018-11-11T12:28:51.205Z,16.25
2018-11-11T12:31:19.318Z,16.23
2018-11-11T12:33:47.403Z,16.18
2018-11-11T12:36:15.467Z,16.18
2018-11-11T12:38:43.544Z,16.23
2018-11-11T12:41:11.607Z,16.28
2018-11-11T12:43:39.683Z,16.32
2018-11-11T12:46:07.747Z,16.37
2018-11-11T12:48:35.864Z,16.38
2018-11-11T12:51:03.959Z,16.41
2018-11-11T12:53:32.028Z,16.41
2018-11-11T12:56:00.149Z,16.41
2018-11-11T12:58:28.221Z,16.44
2018-11-11T13:00:56.310Z,16.42
2018-11-11T13:05:58.161Z,16.46
2018-11-11T13:08:26.225Z,16.47
2018-11-11T13:10:54.309Z,16.49
2018-11-11T13:13:22.381Z,16.49
2018-11-11T13:15:50.452Z,16.50
2018-11-11T13:18:18.516Z,16.51
2018-11-11T13:20:46.592Z,16.51
2018-11-11T13:23:14.657Z,16.51
2018-11-11T13:25:42.732Z,16.48
2018-11-11T13:28:10.810Z,16.46
2018-11-11T13:30:38.888Z,16.47
2018-11-11T13:33:06.958Z,16.45
2018-11-11T13:35:35.031Z,16.44
2018-11-11T13:38:03.304Z,16.44
2018-11-11T13:40:31.177Z,16.41
2018-11-11T13:42:59.242Z,16.43
2018-11-11T13:45:27.328Z,16.42
2018-11-11T13:47:55.392Z,16.41
2018-11-11T13:50:24.654Z,16.43
2018-11-11T13:52:52.739Z,16.48
2018-11-11T13:55:21.555Z,16.59
2018-11-11T13:57:49.986Z,16.69
2018-11-11T14:00:21.144Z,16.71
2018-11-11T14:02:49.245Z,16.68
2018-11-11T14:05:17.330Z,16.63
2018-11-11T14:07:45.553Z,16.56
2018-11-11T14:10:14.255Z,16.51
2018-11-11T14:12:42.312Z,16.46
2018-11-11T14:15:14.134Z,16.42
2018-11-11T14:17:42.961Z,16.35
2018-11-11T14:20:12.480Z,16.30
2018-11-11T14:22:41.867Z,16.22
2018-11-11T14:25:14.066Z,16.17
2018-11-11T14:27:42.217Z,16.11
2018-11-11T14:30:12.765Z,16.05
2018-11-11T14:32:40.893Z,16.01
2018-11-11T14:35:09.813Z,15.95
2018-11-11T14:37:37.956Z,15.91
2018-11-11T14:40:10.358Z,15.88
2018-11-11T14:42:38.652Z,15.84
2018-11-11T14:45:07.877Z,15.80
2018-11-11T14:47:35.964Z,15.78
2018-11-11T14:50:04.183Z,15.74
2018-11-11T14:52:32.310Z,15.72
2018-11-11T14:55:00.332Z,15.71
2018-11-11T14:57:28.511Z,15.67
2018-11-11T14:59:56.580Z,15.63
2018-11-11T15:02:24.714Z,15.60
2018-11-11T15:04:52.781Z,15.58
2018-11-11T15:07:20.965Z,15.56
2018-11-11T15:09:49.033Z,15.54
2018-11-11T15:12:17.208Z,15.51
2018-11-11T15:14:45.276Z,15.48
2018-11-11T15:17:13.462Z,15.43
2018-11-11T15:19:41.625Z,15.40
2018-11-11T15:22:09.614Z,15.35
2018-11-11T15:24:37.685Z,15.31
2018-11-11T15:27:06.165Z,15.25
2018-11-11T15:29:34.339Z,15.19
2018-11-11T15:32:02.397Z,15.11
2018-11-11T15:34:30.460Z,15.06
2018-11-11T15:36:58.652Z,14.99
2018-11-11T15:39:26.723Z,14.96
2018-11-11T15:41:54.812Z,14.89
2018-11-11T15:44:22.883Z,14.84
2018-11-11T15:46:51.032Z,14.78
2018-11-11T15:49:19.117Z,14.73
2018-11-11T15:51:47.284Z,14.66
2018-11-11T15:54:15.465Z,14.63
2018-11-11T15:56:43.536Z,14.58
2018-11-11T15:59:11.639Z,14.55
2018-11-11T16:01:39.673Z,14.50
2018-11-11T16:04:08.013Z,14.44
2018-11-11T16:06:36.084Z,14.37
2018-11-11T16:09:05.075Z,14.34
2018-11-11T16:11:33.147Z,14.27
2018-11-11T16:14:01.292Z,14.20
2018-11-11T16:16:29.326Z,14.13
2018-11-11T16:18:57.405Z,14.09
2018-11-11T16:21:25.471Z,14.04
2018-11-11T16:23:53.548Z,14.00
2018-11-11T16:26:21.621Z,13.92
2018-11-11T16:28:49.710Z,13.87
2018-11-11T16:31:17.794Z,13.81
2018-11-11T16:33:45.906Z,13.75
2018-11-11T16:36:13.912Z,13.69
2018-11-11T16:38:42.093Z,13.62
2018-11-11T16:41:10.312Z,13.57
2018-11-11T16:43:38.236Z,13.51
2018-11-11T16:46:06.310Z,13.50
2018-11-11T16:48:34.390Z,13.45
2018-11-11T16:51:02.516Z,13.40
2018-11-11T16:53:30.633Z,13.38
2018-11-11T16:55:58.695Z,13.33
2018-11-11T16:58:26.773Z,13.34
2018-11-11T17:00:54.845Z,13.24
2018-11-11T17:03:22.924Z,13.19
2018-11-11T17:05:50.994Z,13.16
2018-11-11T17:08:19.080Z,13.14
2018-11-11T17:10:47.150Z,13.17
2018-11-11T17:13:15.229Z,13.14
2018-11-11T17:15:43.309Z,13.18
2018-11-11T17:18:11.464Z,13.15
2018-11-11T17:20:39.664Z,13.16
2018-11-11T17:23:08.369Z,13.11
2018-11-11T17:25:36.456Z,13.06
2018-11-11T17:28:04.655Z,13.03
2018-11-11T17:30:33.262Z,12.99
2018-11-11T17:33:01.981Z,12.97
2018-11-11T17:35:29.988Z,12.92
2018-11-11T17:37:58.076Z,12.92
2018-11-11T17:40:27.528Z,12.87
2018-11-11T17:42:56.138Z,12.84
2018-11-11T17:45:24.246Z,12.81
2018-11-11T17:47:53.002Z,12.77
2018-11-11T17:50:24.567Z,12.74
2018-11-11T17:52:52.716Z,12.76
2018-11-11T17:55:22.177Z,12.77
2018-11-11T17:57:50.248Z,12.73
2018-11-11T18:00:19.621Z,12.71
2018-11-11T18:02:47.793Z,12.75
2018-11-11T18:05:17.305Z,12.69
2018-11-11T18:07:45.400Z,12.66
2018-11-11T18:10:14.891Z,12.66
2018-11-11T18:12:43.124Z,12.67
2018-11-11T18:15:12.860Z,12.72
2018-11-11T18:17:41.451Z,12.69
2018-11-11T18:20:12.236Z,12.64
2018-11-11T18:22:40.302Z,12.67
2018-11-11T18:25:08.517Z,12.67
2018-11-11T18:27:36.890Z,12.66
2018-11-11T18:30:09.909Z,12.59
2018-11-11T18:32:38.190Z,12.53
2018-11-11T18:35:08.099Z,12.50
2018-11-11T18:37:36.205Z,12.50
2018-11-11T18:40:05.228Z,12.46
2018-11-11T18:42:33.268Z,12.45
2018-11-11T18:45:01.362Z,12.52
2018-11-11T18:47:29.577Z,12.52
2018-11-11T18:49:57.654Z,12.46
2018-11-11T18:52:25.807Z,12.44
2018-11-11T18:54:53.915Z,12.44
2018-11-11T18:57:22.187Z,12.42
2018-11-11T18:59:50.260Z,12.51
2018-11-11T19:02:18.856Z,12.45
2018-11-11T19:04:47.889Z,12.46
2018-11-11T19:07:15.990Z,12.46
2018-11-11T19:09:44.142Z,12.47
2018-11-11T19:12:12.197Z,12.44
2018-11-11T19:14:40.291Z,12.47
2018-11-11T19:17:08.395Z,12.49
2018-11-11T19:19:36.492Z,12.49
2018-11-11T19:22:04.667Z,12.48
2018-11-11T19:24:32.851Z,12.41
2018-11-11T19:27:00.865Z,12.37
2018-11-11T19:29:28.960Z,12.38
2018-11-11T19:31:57.043Z,12.34
2018-11-11T19:34:25.169Z,12.40
2018-11-11T19:36:53.256Z,12.29
2018-11-11T19:39:21.343Z,12.24
2018-11-11T19:41:49.536Z,12.40
2018-11-11T19:44:17.596Z,12.28
2018-11-11T19:46:45.671Z,12.27
2018-11-11T19:49:13.917Z,12.24
2018-11-11T19:51:42.175Z,12.32
2018-11-11T19:54:10.158Z,12.34
2018-11-11T19:56:38.333Z,12.29
2018-11-11T19:59:06.437Z,12.31
2018-11-11T20:01:34.518Z,12.24
2018-11-11T20:04:02.616Z,12.25
2018-11-11T20:06:30.705Z,12.16
2018-11-11T20:08:58.910Z,12.23
2018-11-11T20:11:27.153Z,12.21
2018-11-11T20:13:55.251Z,12.12
2018-11-11T20:16:23.345Z,12.10
2018-11-11T20:18:51.446Z,12.11
2018-11-11T20:21:19.549Z,12.09
2018-11-11T20:23:47.692Z,12.06
2018-11-11T20:26:15.718Z,12.01
2018-11-11T20:28:43.832Z,12.05
2018-11-11T20:31:12.011Z,12.00
2018-11-11T20:33:40.130Z,11.87
2018-11-11T20:36:08.227Z,11.87
2018-11-11T20:38:36.333Z,11.89
2018-11-11T20:41:04.522Z,11.79
2018-11-11T20:43:32.625Z,11.74
2018-11-11T20:46:00.740Z,11.75
2018-11-11T20:48:28.836Z,11.73
2018-11-11T20:50:56.940Z,11.70
2018-11-11T20:53:25.138Z,11.60
2018-11-11T20:55:53.299Z,11.63
2018-11-11T20:58:21.341Z,11.63
2018-11-11T21:00:49.438Z,11.58
2018-11-11T21:03:17.525Z,11.60
2018-11-11T21:05:45.696Z,11.51
2018-11-11T21:08:13.867Z,11.52
2018-11-11T21:10:42.008Z,11.51
2018-11-11T21:13:10.090Z,11.51
2018-11-11T21:15:38.402Z,11.53
2018-11-11T21:18:06.509Z,11.52
2018-11-11T21:20:34.620Z,11.51
2018-11-11T21:23:02.716Z,11.52
2018-11-11T21:25:30.860Z,11.53
2018-11-11T21:27:58.928Z,11.48
2018-11-11T21:30:29.233Z,11.53
2018-11-11T21:32:57.495Z,11.50
2018-11-11T21:35:25.607Z,11.55
2018-11-11T21:37:53.745Z,11.54
2018-11-11T21:40:23.151Z,11.57
2018-11-11T21:42:51.832Z,11.55
2018-11-11T21:45:21.143Z,11.55
2018-11-11T21:47:49.416Z,11.57
2018-11-11T21:50:20.877Z,11.63
2018-11-11T21:53:22.191Z,11.65
2018-11-11T21:55:50.500Z,11.71
2018-11-11T21:58:18.603Z,11.81
2018-11-11T22:00:46.718Z,11.93
2018-11-11T22:03:14.885Z,12.08
2018-11-11T22:05:42.980Z,12.17
2018-11-11T22:08:11.082Z,12.26
2018-11-11T22:10:39.180Z,12.35
2018-11-11T22:13:07.279Z,12.45
2018-11-11T22:15:35.383Z,12.48
2018-11-11T22:18:03.556Z,12.46
2018-11-11T22:20:31.576Z,12.45
2018-11-11T22:22:59.677Z,12.47
2018-11-11T22:25:27.764Z,12.48
2018-11-11T22:27:55.905Z,12.42
2018-11-11T22:30:23.965Z,12.35
2018-11-11T22:32:52.065Z,12.32
2018-11-11T22:35:20.158Z,12.34
2018-11-11T22:37:48.258Z,12.43
2018-11-11T22:40:16.348Z,12.46
2018-11-11T22:42:44.452Z,12.51
2018-11-11T22:45:13.727Z,12.57
2018-11-11T22:47:41.848Z,12.65
2018-11-11T22:50:11.676Z,12.76
2018-11-11T22:52:40.215Z,12.85
2018-11-11T22:55:09.345Z,12.84
2018-11-11T22:57:37.448Z,12.86
2018-11-11T23:00:16.270Z,13.06
2018-11-11T23:02:44.403Z,13.04
2018-11-11T23:05:12.490Z,13.10
2018-11-11T23:07:40.607Z,13.15
2018-11-11T23:10:09.362Z,13.17
2018-11-11T23:12:37.638Z,13.18
2018-11-11T23:15:06.438Z,13.15
2018-11-11T23:17:34.713Z,13.19
2018-11-11T23:20:02.817Z,13.08
2018-11-11T23:22:30.923Z,13.02
2018-11-11T23:24:59.342Z,12.97
2018-11-11T23:27:27.435Z,12.91
2018-11-11T23:29:55.526Z,12.85
2018-11-11T23:32:23.604Z,12.92
2018-11-11T23:34:51.706Z,12.89
2018-11-11T23:37:19.777Z,12.84
2018-11-11T23:39:47.868Z,12.91
2018-11-11T23:42:15.942Z,13.05
2018-11-11T23:44:44.043Z,12.96
2018-11-11T23:47:12.140Z,13.00
2018-11-11T23:49:40.221Z,13.04
2018-11-11T23:52:08.307Z,12.96
2018-11-11T23:54:36.620Z,12.98
2018-11-11T23:57:05.097Z,12.93
2018-11-11T23:59:33.197Z,12.91
